This is the latest recevied weather packets stored in our database for station/object OE5RBO. If no packets are shown the sender has not sent any weather packets the latest 10 day(s).
| Time | Temp. | Humidity | Pressure | Rain* | Wind** | Luminosity | Snow |
|---|---|---|---|---|---|---|---|
| 1788372857 | 21.67° C | 70% | 1020.1 hPa | 0 mm | - | - | - |
| 1788372257 | 21.67° C | 70% | 1019.7 hPa | 0 mm | - | - | - |
| 1788371656 | 21.67° C | 70% | 1020 hPa | 0 mm | - | - | - |
| 1788371056 | 21.67° C | 69% | 1019.9 hPa | 0 mm | - | - | - |
| 1788369855 | 22.22° C | 67% | 1019.9 hPa | 0 mm | - | - | - |
| 1788369255 | 22.22° C | 67% | 1019.9 hPa | 0 mm | - | - | - |
| 1788368655 | 22.78° C | 65% | 1019.9 hPa | 0 mm | - | - | - |
| 1788368054 | 22.78° C | 65% | 1020 hPa | 0 mm | - | - | - |
| 1788366853 | 24.44° C | 62% | 1020 hPa | 0 mm | - | - | - |
| 1788366253 | 25° C | 60% | 1019.9 hPa | 0 mm | - | - | - |
| 1788365652 | 25.56° C | 58% | 1019.9 hPa | 0 mm | - | - | - |
| 1788365052 | 25.56° C | 55% | 1019.9 hPa | 0 mm | - | - | - |
| 1788364452 | 26.11° C | 55% | 1019.9 hPa | 0 mm | - | - | - |
| 1788363852 | 26.11° C | 54% | 1019.9 hPa | 0 mm | - | - | - |
| 1788363252 | 26.11° C | 56% | 1019.9 hPa | 0 mm | - | - | - |
| 1788362651 | 26.11° C | 56% | 1020 hPa | 0 mm | - | - | - |
| 1788362051 | 25.56° C | 57% | 1020 hPa | 0 mm | - | - | - |
| 1788361450 | 25.56° C | 57% | 1020 hPa | 0 mm | - | - | - |
| 1788360850 | 26.67° C | 56% | 1020.1 hPa | 0 mm | - | - | - |
| 1788360249 | 28.33° C | 52% | 1020.1 hPa | 0 mm | - | - | - |
| 1788359649 | 27.22° C | 54% | 1020.1 hPa | 0 mm | - | - | - |
| 1788358448 | 27.22° C | 55% | 1020.3 hPa | 0 mm | - | - | - |
| 1788357848 | 27.22° C | 54% | 1020.2 hPa | 0 mm | - | - | - |
| 1788357247 | 27.22° C | 54% | 1020.4 hPa | 0 mm | - | - | - |
| 1788356047 | 26.67° C | 56% | 1020.3 hPa | 0 mm | - | - | - |
* Rain since midnight (hover to see other rain measurements)
** Current wind speed in m/s (hover to see current wind gust speed)